sensor_id;sensor_type;location;lat;lon;timestamp;temperature;humidity
71237;DHT22;58984;51.960;5.582;2023-04-15T00:01:20;16.30;49.00
71237;DHT22;58984;51.960;5.582;2023-04-15T00:03:47;16.30;49.00
71237;DHT22;58984;51.960;5.582;2023-04-15T00:06:12;16.30;49.00
71237;DHT22;58984;51.960;5.582;2023-04-15T00:08:39;16.30;49.10
71237;DHT22;58984;51.960;5.582;2023-04-15T00:11:04;16.30;49.00
71237;DHT22;58984;51.960;5.582;2023-04-15T00:13:31;16.20;49.00
71237;DHT22;58984;51.960;5.582;2023-04-15T00:15:58;16.20;49.70
71237;DHT22;58984;51.960;5.582;2023-04-15T00:18:24;16.30;49.20
71237;DHT22;58984;51.960;5.582;2023-04-15T00:20:49;16.20;49.00
71237;DHT22;58984;51.960;5.582;2023-04-15T00:23:15;16.20;49.20
71237;DHT22;58984;51.960;5.582;2023-04-15T00:25:41;16.20;49.10
71237;DHT22;58984;51.960;5.582;2023-04-15T00:28:06;16.20;49.40
71237;DHT22;58984;51.960;5.582;2023-04-15T00:30:32;16.20;49.30
71237;DHT22;58984;51.960;5.582;2023-04-15T00:33:00;16.20;49.30
71237;DHT22;58984;51.960;5.582;2023-04-15T00:35:28;16.20;49.90
71237;DHT22;58984;51.960;5.582;2023-04-15T00:37:57;16.20;49.30
71237;DHT22;58984;51.960;5.582;2023-04-15T00:40:22;16.10;49.20
71237;DHT22;58984;51.960;5.582;2023-04-15T00:42:49;16.10;49.20
71237;DHT22;58984;51.960;5.582;2023-04-15T00:45:15;16.10;49.30
71237;DHT22;58984;51.960;5.582;2023-04-15T00:47:42;16.10;49.30
71237;DHT22;58984;51.960;5.582;2023-04-15T00:50:09;16.10;49.30
71237;DHT22;58984;51.960;5.582;2023-04-15T00:52:35;16.10;49.30
71237;DHT22;58984;51.960;5.582;2023-04-15T00:55:02;16.10;49.30
71237;DHT22;58984;51.960;5.582;2023-04-15T00:57:29;16.10;49.30
71237;DHT22;58984;51.960;5.582;2023-04-15T00:59:55;16.10;49.30
71237;DHT22;58984;51.960;5.582;2023-04-15T01:02:21;16.00;49.10
71237;DHT22;58984;51.960;5.582;2023-04-15T01:04:47;16.00;49.10
71237;DHT22;58984;51.960;5.582;2023-04-15T01:07:13;16.00;49.10
71237;DHT22;58984;51.960;5.582;2023-04-15T01:09:39;16.00;49.20
71237;DHT22;58984;51.960;5.582;2023-04-15T01:12:06;16.00;49.20
71237;DHT22;58984;51.960;5.582;2023-04-15T01:14:33;16.00;49.20
71237;DHT22;58984;51.960;5.582;2023-04-15T01:16:59;16.00;49.20
71237;DHT22;58984;51.960;5.582;2023-04-15T01:19:25;15.90;49.10
71237;DHT22;58984;51.960;5.582;2023-04-15T01:21:51;16.00;49.30
71237;DHT22;58984;51.960;5.582;2023-04-15T01:24:18;15.90;49.10
71237;DHT22;58984;51.960;5.582;2023-04-15T01:26:44;15.90;49.00
71237;DHT22;58984;51.960;5.582;2023-04-15T01:29:09;15.90;49.00
71237;DHT22;58984;51.960;5.582;2023-04-15T01:31:35;15.90;49.00
71237;DHT22;58984;51.960;5.582;2023-04-15T01:34:01;15.90;49.10
71237;DHT22;58984;51.960;5.582;2023-04-15T01:36:27;15.90;49.00
71237;DHT22;58984;51.960;5.582;2023-04-15T01:38:54;15.90;49.00
71237;DHT22;58984;51.960;5.582;2023-04-15T01:41:27;15.80;49.00
71237;DHT22;58984;51.960;5.582;2023-04-15T01:43:53;15.80;48.90
71237;DHT22;58984;51.960;5.582;2023-04-15T01:46:19;15.80;48.90
71237;DHT22;58984;51.960;5.582;2023-04-15T01:48:45;15.80;48.90
71237;DHT22;58984;51.960;5.582;2023-04-15T01:51:10;15.80;48.90
71237;DHT22;58984;51.960;5.582;2023-04-15T01:53:36;15.80;48.90
71237;DHT22;58984;51.960;5.582;2023-04-15T01:56:02;15.70;48.80
71237;DHT22;58984;51.960;5.582;2023-04-15T01:58:27;15.70;48.80
71237;DHT22;58984;51.960;5.582;2023-04-15T02:00:53;15.70;48.80
71237;DHT22;58984;51.960;5.582;2023-04-15T02:03:18;15.70;49.50
71237;DHT22;58984;51.960;5.582;2023-04-15T02:05:44;15.70;48.80
71237;DHT22;58984;51.960;5.582;2023-04-15T02:08:10;15.70;48.90
71237;DHT22;58984;51.960;5.582;2023-04-15T02:10:36;15.70;48.90
71237;DHT22;58984;51.960;5.582;2023-04-15T02:13:03;15.70;48.90
71237;DHT22;58984;51.960;5.582;2023-04-15T02:15:29;15.60;48.90
71237;DHT22;58984;51.960;5.582;2023-04-15T02:17:54;15.60;48.90
71237;DHT22;58984;51.960;5.582;2023-04-15T02:20:20;15.60;49.00
71237;DHT22;58984;51.960;5.582;2023-04-15T02:22:46;15.60;48.90
71237;DHT22;58984;51.960;5.582;2023-04-15T02:25:13;15.60;48.90
71237;DHT22;58984;51.960;5.582;2023-04-15T02:27:39;15.50;48.90
71237;DHT22;58984;51.960;5.582;2023-04-15T02:30:05;15.50;48.80
71237;DHT22;58984;51.960;5.582;2023-04-15T02:32:32;15.50;49.00
71237;DHT22;58984;51.960;5.582;2023-04-15T02:35:02;15.60;49.10
71237;DHT22;58984;51.960;5.582;2023-04-15T02:37:28;15.50;49.00
71237;DHT22;58984;51.960;5.582;2023-04-15T02:39:55;15.50;48.90
71237;DHT22;58984;51.960;5.582;2023-04-15T02:42:20;15.50;49.00
71237;DHT22;58984;51.960;5.582;2023-04-15T02:44:46;15.50;49.00
71237;DHT22;58984;51.960;5.582;2023-04-15T02:47:12;15.50;49.00
71237;DHT22;58984;51.960;5.582;2023-04-15T02:49:38;15.50;49.00
71237;DHT22;58984;51.960;5.582;2023-04-15T02:52:05;15.40;48.90
71237;DHT22;58984;51.960;5.582;2023-04-15T02:54:31;15.40;49.60
71237;DHT22;58984;51.960;5.582;2023-04-15T02:56:58;15.40;49.00
71237;DHT22;58984;51.960;5.582;2023-04-15T02:59:24;15.40;49.00
71237;DHT22;58984;51.960;5.582;2023-04-15T03:01:50;15.40;49.00
71237;DHT22;58984;51.960;5.582;2023-04-15T03:04:15;15.40;49.10
71237;DHT22;58984;51.960;5.582;2023-04-15T03:06:41;15.40;49.10
71237;DHT22;58984;51.960;5.582;2023-04-15T03:09:07;15.30;49.00
71237;DHT22;58984;51.960;5.582;2023-04-15T03:11:33;15.30;49.00
71237;DHT22;58984;51.960;5.582;2023-04-15T03:13:59;15.30;49.10
71237;DHT22;58984;51.960;5.582;2023-04-15T03:16:25;15.30;49.10
71237;DHT22;58984;51.960;5.582;2023-04-15T03:18:50;15.30;49.10
71237;DHT22;58984;51.960;5.582;2023-04-15T03:21:16;15.20;49.10
71237;DHT22;58984;51.960;5.582;2023-04-15T03:23:42;15.20;49.10
71237;DHT22;58984;51.960;5.582;2023-04-15T03:26:08;15.20;49.10
71237;DHT22;58984;51.960;5.582;2023-04-15T03:28:33;15.20;49.20
71237;DHT22;58984;51.960;5.582;2023-04-15T03:30:59;15.20;49.20
71237;DHT22;58984;51.960;5.582;2023-04-15T03:33:25;15.20;49.30
71237;DHT22;58984;51.960;5.582;2023-04-15T03:35:51;15.20;49.30
71237;DHT22;58984;51.960;5.582;2023-04-15T03:38:17;15.20;49.40
71237;DHT22;58984;51.960;5.582;2023-04-15T03:40:44;15.20;49.30
71237;DHT22;58984;51.960;5.582;2023-04-15T03:43:10;15.10;49.30
71237;DHT22;58984;51.960;5.582;2023-04-15T03:45:36;15.10;49.30
71237;DHT22;58984;51.960;5.582;2023-04-15T03:48:02;15.10;49.30
71237;DHT22;58984;51.960;5.582;2023-04-15T03:50:28;15.10;49.30
71237;DHT22;58984;51.960;5.582;2023-04-15T03:52:53;15.10;50.00
71237;DHT22;58984;51.960;5.582;2023-04-15T03:55:19;15.10;49.40
71237;DHT22;58984;51.960;5.582;2023-04-15T03:57:45;15.10;49.40
71237;DHT22;58984;51.960;5.582;2023-04-15T04:00:11;15.10;49.50
71237;DHT22;58984;51.960;5.582;2023-04-15T04:02:37;15.00;49.30
71237;DHT22;58984;51.960;5.582;2023-04-15T04:05:03;15.00;49.50
71237;DHT22;58984;51.960;5.582;2023-04-15T04:07:28;15.00;49.50
71237;DHT22;58984;51.960;5.582;2023-04-15T04:09:56;15.00;49.50
71237;DHT22;58984;51.960;5.582;2023-04-15T04:12:22;15.00;49.60
71237;DHT22;58984;51.960;5.582;2023-04-15T04:14:47;14.90;49.50
71237;DHT22;58984;51.960;5.582;2023-04-15T04:17:13;14.90;49.60
71237;DHT22;58984;51.960;5.582;2023-04-15T04:19:38;14.90;49.60
71237;DHT22;58984;51.960;5.582;2023-04-15T04:22:04;14.90;49.70
71237;DHT22;58984;51.960;5.582;2023-04-15T04:24:30;14.90;49.70
71237;DHT22;58984;51.960;5.582;2023-04-15T04:26:56;14.90;49.80
71237;DHT22;58984;51.960;5.582;2023-04-15T04:29:21;14.90;49.70
71237;DHT22;58984;51.960;5.582;2023-04-15T04:31:47;14.90;49.70
71237;DHT22;58984;51.960;5.582;2023-04-15T04:34:14;14.90;49.70
71237;DHT22;58984;51.960;5.582;2023-04-15T04:36:39;14.80;49.70
71237;DHT22;58984;51.960;5.582;2023-04-15T04:39:05;14.80;49.70
71237;DHT22;58984;51.960;5.582;2023-04-15T04:41:30;14.80;49.80
71237;DHT22;58984;51.960;5.582;2023-04-15T04:43:56;14.80;49.80
71237;DHT22;58984;51.960;5.582;2023-04-15T04:46:22;14.80;49.80
71237;DHT22;58984;51.960;5.582;2023-04-15T04:48:48;14.80;49.90
71237;DHT22;58984;51.960;5.582;2023-04-15T04:51:14;14.80;50.00
71237;DHT22;58984;51.960;5.582;2023-04-15T04:53:40;14.80;50.00
71237;DHT22;58984;51.960;5.582;2023-04-15T04:56:07;14.80;50.00
71237;DHT22;58984;51.960;5.582;2023-04-15T04:58:33;14.70;49.90
71237;DHT22;58984;51.960;5.582;2023-04-15T05:00:58;14.70;49.90
71237;DHT22;58984;51.960;5.582;2023-04-15T05:03:24;14.70;49.90
71237;DHT22;58984;51.960;5.582;2023-04-15T05:05:49;14.70;50.00
71237;DHT22;58984;51.960;5.582;2023-04-15T05:08:15;14.70;50.10
71237;DHT22;58984;51.960;5.582;2023-04-15T05:10:41;14.60;50.00
71237;DHT22;58984;51.960;5.582;2023-04-15T05:13:06;14.60;50.00
71237;DHT22;58984;51.960;5.582;2023-04-15T05:15:32;14.60;50.10
71237;DHT22;58984;51.960;5.582;2023-04-15T05:17:59;14.60;50.10
71237;DHT22;58984;51.960;5.582;2023-04-15T05:20:25;14.60;50.10
71237;DHT22;58984;51.960;5.582;2023-04-15T05:22:50;14.60;50.20
71237;DHT22;58984;51.960;5.582;2023-04-15T05:25:16;14.60;50.20
71237;DHT22;58984;51.960;5.582;2023-04-15T05:27:42;14.60;50.10
71237;DHT22;58984;51.960;5.582;2023-04-15T05:30:08;14.50;50.10
71237;DHT22;58984;51.960;5.582;2023-04-15T05:32:34;14.50;50.10
71237;DHT22;58984;51.960;5.582;2023-04-15T05:34:59;14.50;50.20
71237;DHT22;58984;51.960;5.582;2023-04-15T05:37:25;14.50;50.30
71237;DHT22;58984;51.960;5.582;2023-04-15T05:39:51;14.50;50.40
71237;DHT22;58984;51.960;5.582;2023-04-15T05:42:16;14.50;50.40
71237;DHT22;58984;51.960;5.582;2023-04-15T05:44:42;14.50;50.40
71237;DHT22;58984;51.960;5.582;2023-04-15T05:47:08;14.50;50.50
71237;DHT22;58984;51.960;5.582;2023-04-15T05:49:35;14.50;50.50
71237;DHT22;58984;51.960;5.582;2023-04-15T05:52:01;14.50;50.50
71237;DHT22;58984;51.960;5.582;2023-04-15T05:54:26;14.50;50.60
71237;DHT22;58984;51.960;5.582;2023-04-15T05:56:52;14.50;50.60
71237;DHT22;58984;51.960;5.582;2023-04-15T05:59:18;14.50;50.70
71237;DHT22;58984;51.960;5.582;2023-04-15T06:01:44;14.50;51.40
71237;DHT22;58984;51.960;5.582;2023-04-15T06:04:09;14.50;50.80
71237;DHT22;58984;51.960;5.582;2023-04-15T06:06:36;14.40;50.80
71237;DHT22;58984;51.960;5.582;2023-04-15T06:09:02;14.40;50.80
71237;DHT22;58984;51.960;5.582;2023-04-15T06:11:28;14.40;50.90
71237;DHT22;58984;51.960;5.582;2023-04-15T06:13:53;14.40;50.90
71237;DHT22;58984;51.960;5.582;2023-04-15T06:16:19;14.40;51.00
71237;DHT22;58984;51.960;5.582;2023-04-15T06:18:45;14.40;51.00
71237;DHT22;58984;51.960;5.582;2023-04-15T06:21:11;14.40;51.10
71237;DHT22;58984;51.960;5.582;2023-04-15T06:23:37;14.40;51.10
71237;DHT22;58984;51.960;5.582;2023-04-15T06:26:02;14.40;51.10
71237;DHT22;58984;51.960;5.582;2023-04-15T06:28:28;14.40;51.20
71237;DHT22;58984;51.960;5.582;2023-04-15T06:30:54;14.40;51.20
71237;DHT22;58984;51.960;5.582;2023-04-15T06:33:19;14.30;51.20
71237;DHT22;58984;51.960;5.582;2023-04-15T06:35:45;14.40;51.40
71237;DHT22;58984;51.960;5.582;2023-04-15T06:38:11;14.40;51.50
71237;DHT22;58984;51.960;5.582;2023-04-15T06:40:37;14.40;51.50
71237;DHT22;58984;51.960;5.582;2023-04-15T06:43:03;14.40;51.50
71237;DHT22;58984;51.960;5.582;2023-04-15T06:45:29;14.40;51.80
71237;DHT22;58984;51.960;5.582;2023-04-15T06:47:55;14.40;51.80
71237;DHT22;58984;51.960;5.582;2023-04-15T06:50:21;14.40;52.50
71237;DHT22;58984;51.960;5.582;2023-04-15T06:52:46;14.40;51.90
71237;DHT22;58984;51.960;5.582;2023-04-15T06:55:12;14.30;51.90
71237;DHT22;58984;51.960;5.582;2023-04-15T06:57:37;14.40;52.00
71237;DHT22;58984;51.960;5.582;2023-04-15T07:00:03;14.40;52.10
71237;DHT22;58984;51.960;5.582;2023-04-15T07:02:30;14.40;52.10
71237;DHT22;58984;51.960;5.582;2023-04-15T07:04:55;14.40;52.20
71237;DHT22;58984;51.960;5.582;2023-04-15T07:07:21;14.40;52.20
71237;DHT22;58984;51.960;5.582;2023-04-15T07:09:47;14.40;52.30
71237;DHT22;58984;51.960;5.582;2023-04-15T07:12:12;14.40;52.40
71237;DHT22;58984;51.960;5.582;2023-04-15T07:14:38;14.40;52.40
71237;DHT22;58984;51.960;5.582;2023-04-15T07:17:04;14.40;52.50
71237;DHT22;58984;51.960;5.582;2023-04-15T07:19:29;14.40;52.50
71237;DHT22;58984;51.960;5.582;2023-04-15T07:21:55;14.40;52.50
71237;DHT22;58984;51.960;5.582;2023-04-15T07:24:21;14.40;52.50
71237;DHT22;58984;51.960;5.582;2023-04-15T07:26:52;14.40;52.60
71237;DHT22;58984;51.960;5.582;2023-04-15T07:29:17;14.40;52.60
71237;DHT22;58984;51.960;5.582;2023-04-15T07:31:43;14.50;52.70
71237;DHT22;58984;51.960;5.582;2023-04-15T07:34:09;14.50;52.70
71237;DHT22;58984;51.960;5.582;2023-04-15T07:36:35;14.50;52.80
71237;DHT22;58984;51.960;5.582;2023-04-15T07:39:01;14.50;52.80
71237;DHT22;58984;51.960;5.582;2023-04-15T07:41:28;14.50;52.90
71237;DHT22;58984;51.960;5.582;2023-04-15T07:43:55;14.60;53.10
71237;DHT22;58984;51.960;5.582;2023-04-15T07:46:20;14.60;53.10
71237;DHT22;58984;51.960;5.582;2023-04-15T07:48:48;14.60;53.20
71237;DHT22;58984;51.960;5.582;2023-04-15T07:51:13;14.60;53.10
71237;DHT22;58984;51.960;5.582;2023-04-15T07:53:39;14.60;53.10
71237;DHT22;58984;51.960;5.582;2023-04-15T07:56:05;14.70;53.10
71237;DHT22;58984;51.960;5.582;2023-04-15T07:58:31;14.70;53.20
71237;DHT22;58984;51.960;5.582;2023-04-15T08:00:56;14.70;53.20
71237;DHT22;58984;51.960;5.582;2023-04-15T08:03:23;14.80;53.20
71237;DHT22;58984;51.960;5.582;2023-04-15T08:05:49;14.80;53.10
71237;DHT22;58984;51.960;5.582;2023-04-15T08:08:15;14.80;53.20
71237;DHT22;58984;51.960;5.582;2023-04-15T08:10:41;14.80;53.10
71237;DHT22;58984;51.960;5.582;2023-04-15T08:13:06;14.90;53.10
71237;DHT22;58984;51.960;5.582;2023-04-15T08:15:32;14.90;53.10
71237;DHT22;58984;51.960;5.582;2023-04-15T08:17:58;14.90;53.00
71237;DHT22;58984;51.960;5.582;2023-04-15T08:20:25;14.90;53.10
71237;DHT22;58984;51.960;5.582;2023-04-15T08:22:50;14.90;53.80
71237;DHT22;58984;51.960;5.582;2023-04-15T08:25:17;15.00;53.20
71237;DHT22;58984;51.960;5.582;2023-04-15T08:27:44;15.10;53.30
71237;DHT22;58984;51.960;5.582;2023-04-15T08:30:10;15.10;53.20
71237;DHT22;58984;51.960;5.582;2023-04-15T08:32:36;15.10;53.30
71237;DHT22;58984;51.960;5.582;2023-04-15T08:35:02;15.20;53.50
71237;DHT22;58984;51.960;5.582;2023-04-15T08:37:28;15.20;53.60
71237;DHT22;58984;51.960;5.582;2023-04-15T08:39:53;15.20;53.60
71237;DHT22;58984;51.960;5.582;2023-04-15T08:42:26;15.30;53.70
71237;DHT22;58984;51.960;5.582;2023-04-15T08:44:54;15.30;53.70
71237;DHT22;58984;51.960;5.582;2023-04-15T08:47:20;15.30;53.60
71237;DHT22;58984;51.960;5.582;2023-04-15T08:49:50;15.30;53.80
71237;DHT22;58984;51.960;5.582;2023-04-15T08:52:18;15.40;53.90
71237;DHT22;58984;51.960;5.582;2023-04-15T08:54:44;15.50;54.00
71237;DHT22;58984;51.960;5.582;2023-04-15T08:57:10;15.50;54.00
71237;DHT22;58984;51.960;5.582;2023-04-15T08:59:37;15.50;54.10
71237;DHT22;58984;51.960;5.582;2023-04-15T09:02:03;15.60;54.20
71237;DHT22;58984;51.960;5.582;2023-04-15T09:04:28;15.60;54.10
71237;DHT22;58984;51.960;5.582;2023-04-15T09:06:54;15.70;54.30
71237;DHT22;58984;51.960;5.582;2023-04-15T09:09:21;15.70;54.20
71237;DHT22;58984;51.960;5.582;2023-04-15T09:11:47;15.70;54.30
71237;DHT22;58984;51.960;5.582;2023-04-15T09:14:14;15.80;54.50
71237;DHT22;58984;51.960;5.582;2023-04-15T09:16:55;15.90;54.60
71237;DHT22;58984;51.960;5.582;2023-04-15T09:19:23;15.80;54.50
71237;DHT22;58984;51.960;5.582;2023-04-15T09:21:56;16.00;54.50
71237;DHT22;58984;51.960;5.582;2023-04-15T09:24:22;16.00;55.30
71237;DHT22;58984;51.960;5.582;2023-04-15T09:26:51;16.00;54.60
71237;DHT22;58984;51.960;5.582;2023-04-15T09:29:18;16.10;54.70
71237;DHT22;58984;51.960;5.582;2023-04-15T09:31:44;16.10;54.70
71237;DHT22;58984;51.960;5.582;2023-04-15T09:34:09;16.20;54.80
71237;DHT22;58984;51.960;5.582;2023-04-15T09:36:51;16.20;54.80
71237;DHT22;58984;51.960;5.582;2023-04-15T09:39:17;16.20;54.80
71237;DHT22;58984;51.960;5.582;2023-04-15T09:41:43;16.40;54.60
71237;DHT22;58984;51.960;5.582;2023-04-15T09:44:23;16.40;54.60
71237;DHT22;58984;51.960;5.582;2023-04-15T09:46:49;16.30;54.60
71237;DHT22;58984;51.960;5.582;2023-04-15T09:49:15;16.40;54.50
71237;DHT22;58984;51.960;5.582;2023-04-15T09:51:42;16.50;54.50
71237;DHT22;58984;51.960;5.582;2023-04-15T09:54:08;16.50;54.80
71237;DHT22;58984;51.960;5.582;2023-04-15T09:56:35;16.50;54.60
71237;DHT22;58984;51.960;5.582;2023-04-15T09:59:06;16.60;54.60
71237;DHT22;58984;51.960;5.582;2023-04-15T10:01:32;16.70;54.70
71237;DHT22;58984;51.960;5.582;2023-04-15T10:03:58;16.70;54.60
71237;DHT22;58984;51.960;5.582;2023-04-15T10:06:27;16.70;54.60
71237;DHT22;58984;51.960;5.582;2023-04-15T10:08:54;16.70;54.60
71237;DHT22;58984;51.960;5.582;2023-04-15T10:11:21;16.80;54.60
71237;DHT22;58984;51.960;5.582;2023-04-15T10:13:49;16.80;54.50
71237;DHT22;58984;51.960;5.582;2023-04-15T10:16:18;16.90;54.60
71237;DHT22;58984;51.960;5.582;2023-04-15T10:18:46;17.00;54.90
71237;DHT22;58984;51.960;5.582;2023-04-15T10:21:13;17.00;54.70
71237;DHT22;58984;51.960;5.582;2023-04-15T10:23:41;17.00;54.90
71237;DHT22;58984;51.960;5.582;2023-04-15T10:26:07;17.10;55.00
71237;DHT22;58984;51.960;5.582;2023-04-15T10:28:33;17.20;55.10
71237;DHT22;58984;51.960;5.582;2023-04-15T10:30:59;17.20;55.10
71237;DHT22;58984;51.960;5.582;2023-04-15T10:33:26;17.30;55.20
71237;DHT22;58984;51.960;5.582;2023-04-15T10:35:54;17.40;55.20
71237;DHT22;58984;51.960;5.582;2023-04-15T10:38:43;17.40;55.80
71237;DHT22;58984;51.960;5.582;2023-04-15T10:49:14;17.70;55.30
71237;DHT22;58984;51.960;5.582;2023-04-15T10:51:45;17.70;55.20
71237;DHT22;58984;51.960;5.582;2023-04-15T10:59:31;17.90;55.40
71237;DHT22;58984;51.960;5.582;2023-04-15T11:02:00;18.10;55.40
71237;DHT22;58984;51.960;5.582;2023-04-15T11:04:55;18.10;55.40
71237;DHT22;58984;51.960;5.582;2023-04-15T11:12:43;18.30;55.40
71237;DHT22;58984;51.960;5.582;2023-04-15T11:18:10;18.30;55.50
71237;DHT22;58984;51.960;5.582;2023-04-15T11:20:37;18.40;55.50
71237;DHT22;58984;51.960;5.582;2023-04-15T11:23:04;18.50;55.60
71237;DHT22;58984;51.960;5.582;2023-04-15T11:25:31;18.50;55.50
71237;DHT22;58984;51.960;5.582;2023-04-15T11:27:58;18.60;55.60
71237;DHT22;58984;51.960;5.582;2023-04-15T11:30:29;18.60;55.60
71237;DHT22;58984;51.960;5.582;2023-04-15T11:33:00;18.70;55.60
71237;DHT22;58984;51.960;5.582;2023-04-15T11:35:26;18.70;55.60
71237;DHT22;58984;51.960;5.582;2023-04-15T11:37:52;18.80;55.60
71237;DHT22;58984;51.960;5.582;2023-04-15T11:40:28;18.90;55.70
71237;DHT22;58984;51.960;5.582;2023-04-15T11:45:57;18.90;55.70
71237;DHT22;58984;51.960;5.582;2023-04-15T11:48:28;18.90;55.50
71237;DHT22;58984;51.960;5.582;2023-04-15T11:51:00;19.00;55.60
71237;DHT22;58984;51.960;5.582;2023-04-15T11:56:02;19.10;55.70
71237;DHT22;58984;51.960;5.582;2023-04-15T11:58:28;19.20;55.60
71237;DHT22;58984;51.960;5.582;2023-04-15T12:00:57;19.10;55.50
71237;DHT22;58984;51.960;5.582;2023-04-15T12:03:50;19.20;55.50
71237;DHT22;58984;51.960;5.582;2023-04-15T12:06:23;19.20;55.60
71237;DHT22;58984;51.960;5.582;2023-04-15T12:08:58;19.20;55.40
71237;DHT22;58984;51.960;5.582;2023-04-15T12:14:05;19.30;55.50
71237;DHT22;58984;51.960;5.582;2023-04-15T12:16:34;19.30;55.50
71237;DHT22;58984;51.960;5.582;2023-04-15T12:19:03;19.30;55.50
71237;DHT22;58984;51.960;5.582;2023-04-15T12:21:34;19.30;55.50
71237;DHT22;58984;51.960;5.582;2023-04-15T12:24:03;19.30;55.70
71237;DHT22;58984;51.960;5.582;2023-04-15T12:26:32;19.40;55.70
71237;DHT22;58984;51.960;5.582;2023-04-15T12:29:02;19.40;55.60
71237;DHT22;58984;51.960;5.582;2023-04-15T12:31:28;19.50;55.70
71237;DHT22;58984;51.960;5.582;2023-04-15T12:33:56;19.50;55.70
71237;DHT22;58984;51.960;5.582;2023-04-15T12:36:21;19.50;55.60
71237;DHT22;58984;51.960;5.582;2023-04-15T12:38:48;19.60;55.70
71237;DHT22;58984;51.960;5.582;2023-04-15T12:41:13;19.60;55.70
71237;DHT22;58984;51.960;5.582;2023-04-15T12:43:39;19.60;55.70
71237;DHT22;58984;51.960;5.582;2023-04-15T12:46:05;19.60;55.60
71237;DHT22;58984;51.960;5.582;2023-04-15T12:48:33;19.70;55.60
71237;DHT22;58984;51.960;5.582;2023-04-15T12:50:59;19.70;55.50
71237;DHT22;58984;51.960;5.582;2023-04-15T12:53:25;19.70;55.40
71237;DHT22;58984;51.960;5.582;2023-04-15T12:55:50;19.70;55.20
71237;DHT22;58984;51.960;5.582;2023-04-15T12:58:16;19.80;55.30
71237;DHT22;58984;51.960;5.582;2023-04-15T13:00:42;19.80;55.30
71237;DHT22;58984;51.960;5.582;2023-04-15T13:03:08;19.80;55.30
71237;DHT22;58984;51.960;5.582;2023-04-15T13:05:33;19.80;55.30
71237;DHT22;58984;51.960;5.582;2023-04-15T13:08:01;19.90;55.40
71237;DHT22;58984;51.960;5.582;2023-04-15T13:10:28;19.90;55.30
71237;DHT22;58984;51.960;5.582;2023-04-15T13:12:54;19.90;55.40
71237;DHT22;58984;51.960;5.582;2023-04-15T13:15:21;19.90;55.30
71237;DHT22;58984;51.960;5.582;2023-04-15T13:17:47;19.90;55.30
71237;DHT22;58984;51.960;5.582;2023-04-15T13:20:13;20.00;55.10
71237;DHT22;58984;51.960;5.582;2023-04-15T13:22:39;19.90;55.10
71237;DHT22;58984;51.960;5.582;2023-04-15T13:25:05;20.00;55.00
71237;DHT22;58984;51.960;5.582;2023-04-15T13:27:31;20.00;55.10
71237;DHT22;58984;51.960;5.582;2023-04-15T13:29:58;20.00;55.10
71237;DHT22;58984;51.960;5.582;2023-04-15T13:32:24;20.00;55.10
71237;DHT22;58984;51.960;5.582;2023-04-15T13:34:50;20.00;55.00
71237;DHT22;58984;51.960;5.582;2023-04-15T13:37:16;20.00;55.10
71237;DHT22;58984;51.960;5.582;2023-04-15T13:39:42;20.00;54.90
71237;DHT22;58984;51.960;5.582;2023-04-15T13:42:07;20.00;54.80
71237;DHT22;58984;51.960;5.582;2023-04-15T13:44:33;20.00;54.80
71237;DHT22;58984;51.960;5.582;2023-04-15T13:46:59;20.00;54.80
71237;DHT22;58984;51.960;5.582;2023-04-15T13:49:24;20.00;54.80
71237;DHT22;58984;51.960;5.582;2023-04-15T13:51:50;20.00;54.70
71237;DHT22;58984;51.960;5.582;2023-04-15T13:54:16;20.00;54.60
71237;DHT22;58984;51.960;5.582;2023-04-15T13:56:42;20.00;54.50
71237;DHT22;58984;51.960;5.582;2023-04-15T13:59:07;20.00;54.40
71237;DHT22;58984;51.960;5.582;2023-04-15T14:01:34;20.00;54.30
71237;DHT22;58984;51.960;5.582;2023-04-15T14:04:00;20.00;54.80
71237;DHT22;58984;51.960;5.582;2023-04-15T14:06:26;20.00;54.20
71237;DHT22;58984;51.960;5.582;2023-04-15T14:08:52;20.00;54.20
71237;DHT22;58984;51.960;5.582;2023-04-15T14:11:18;20.00;53.90
71237;DHT22;58984;51.960;5.582;2023-04-15T14:13:43;19.90;53.90
71237;DHT22;58984;51.960;5.582;2023-04-15T14:16:09;20.00;54.00
71237;DHT22;58984;51.960;5.582;2023-04-15T14:18:35;19.90;53.90
71237;DHT22;58984;51.960;5.582;2023-04-15T14:21:02;19.90;53.90
71237;DHT22;58984;51.960;5.582;2023-04-15T14:23:28;19.90;53.90
71237;DHT22;58984;51.960;5.582;2023-04-15T14:25:53;19.90;53.90
71237;DHT22;58984;51.960;5.582;2023-04-15T14:28:19;19.90;53.90
71237;DHT22;58984;51.960;5.582;2023-04-15T14:30:45;19.80;53.80
71237;DHT22;58984;51.960;5.582;2023-04-15T14:33:10;19.80;53.90
71237;DHT22;58984;51.960;5.582;2023-04-15T14:35:36;19.80;53.80
71237;DHT22;58984;51.960;5.582;2023-04-15T14:38:02;19.80;53.90
71237;DHT22;58984;51.960;5.582;2023-04-15T14:40:28;19.80;53.80
71237;DHT22;58984;51.960;5.582;2023-04-15T14:42:53;19.80;53.70
71237;DHT22;58984;51.960;5.582;2023-04-15T14:45:19;19.80;52.60
71237;DHT22;58984;51.960;5.582;2023-04-15T14:47:45;19.70;52.30
71237;DHT22;58984;51.960;5.582;2023-04-15T14:50:11;19.80;52.60
71237;DHT22;58984;51.960;5.582;2023-04-15T14:52:37;19.70;52.80
71237;DHT22;58984;51.960;5.582;2023-04-15T14:55:06;19.70;52.90
71237;DHT22;58984;51.960;5.582;2023-04-15T14:57:32;19.70;53.00
71237;DHT22;58984;51.960;5.582;2023-04-15T14:59:57;19.70;52.80
71237;DHT22;58984;51.960;5.582;2023-04-15T15:02:23;19.70;51.80
71237;DHT22;58984;51.960;5.582;2023-04-15T15:04:49;19.60;49.80
71237;DHT22;58984;51.960;5.582;2023-04-15T15:07:15;19.60;50.10
71237;DHT22;58984;51.960;5.582;2023-04-15T15:09:40;19.60;50.70
71237;DHT22;58984;51.960;5.582;2023-04-15T15:12:06;19.50;51.30
71237;DHT22;58984;51.960;5.582;2023-04-15T15:14:32;19.50;51.70
71237;DHT22;58984;51.960;5.582;2023-04-15T15:16:57;19.50;51.70
71237;DHT22;58984;51.960;5.582;2023-04-15T15:19:23;19.50;51.90
71237;DHT22;58984;51.960;5.582;2023-04-15T15:21:49;19.50;51.90
71237;DHT22;58984;51.960;5.582;2023-04-15T15:24:15;19.50;51.90
71237;DHT22;58984;51.960;5.582;2023-04-15T15:26:41;19.40;51.80
71237;DHT22;58984;51.960;5.582;2023-04-15T15:29:06;19.50;51.80
71237;DHT22;58984;51.960;5.582;2023-04-15T15:31:34;19.40;51.80
71237;DHT22;58984;51.960;5.582;2023-04-15T15:34:00;19.40;52.00
71237;DHT22;58984;51.960;5.582;2023-04-15T15:36:25;19.40;51.90
71237;DHT22;58984;51.960;5.582;2023-04-15T15:38:51;19.40;51.90
71237;DHT22;58984;51.960;5.582;2023-04-15T15:41:17;19.30;51.80
71237;DHT22;58984;51.960;5.582;2023-04-15T15:43:43;19.30;52.00
71237;DHT22;58984;51.960;5.582;2023-04-15T15:46:08;19.30;51.80
71237;DHT22;58984;51.960;5.582;2023-04-15T15:48:34;19.30;51.70
71237;DHT22;58984;51.960;5.582;2023-04-15T15:51:00;19.20;51.70
71237;DHT22;58984;51.960;5.582;2023-04-15T15:53:25;19.20;51.90
71237;DHT22;58984;51.960;5.582;2023-04-15T15:55:51;19.20;51.90